sensor_id;sensor_type;location;lat;lon;timestamp;temperature;humidity
80282;DHT22;69586;51.890;-8.458;2023-10-31T00:02:16;13.00;61.30
80282;DHT22;69586;51.890;-8.458;2023-10-31T00:04:42;13.00;61.10
80282;DHT22;69586;51.890;-8.458;2023-10-31T00:07:07;13.00;61.20
80282;DHT22;69586;51.890;-8.458;2023-10-31T00:09:33;13.00;61.30
80282;DHT22;69586;51.890;-8.458;2023-10-31T00:11:59;13.00;61.30
80282;DHT22;69586;51.890;-8.458;2023-10-31T00:14:25;13.00;61.20
80282;DHT22;69586;51.890;-8.458;2023-10-31T00:16:51;13.00;61.20
80282;DHT22;69586;51.890;-8.458;2023-10-31T00:19:17;13.10;61.10
80282;DHT22;69586;51.890;-8.458;2023-10-31T00:21:42;13.10;60.90
80282;DHT22;69586;51.890;-8.458;2023-10-31T00:24:08;13.10;60.70
80282;DHT22;69586;51.890;-8.458;2023-10-31T00:26:34;13.10;60.70
80282;DHT22;69586;51.890;-8.458;2023-10-31T00:29:00;13.00;60.70
80282;DHT22;69586;51.890;-8.458;2023-10-31T00:31:25;13.00;61.00
80282;DHT22;69586;51.890;-8.458;2023-10-31T00:33:51;13.10;60.80
80282;DHT22;69586;51.890;-8.458;2023-10-31T00:36:17;13.30;60.40
80282;DHT22;69586;51.890;-8.458;2023-10-31T00:38:42;13.30;60.10
80282;DHT22;69586;51.890;-8.458;2023-10-31T00:41:08;13.50;59.90
80282;DHT22;69586;51.890;-8.458;2023-10-31T00:43:34;13.40;59.60
80282;DHT22;69586;51.890;-8.458;2023-10-31T00:46:02;13.40;59.60
80282;DHT22;69586;51.890;-8.458;2023-10-31T00:48:28;13.40;59.60
80282;DHT22;69586;51.890;-8.458;2023-10-31T00:50:53;13.30;59.40
80282;DHT22;69586;51.890;-8.458;2023-10-31T00:53:19;13.30;59.60
80282;DHT22;69586;51.890;-8.458;2023-10-31T00:55:45;13.30;59.60
80282;DHT22;69586;51.890;-8.458;2023-10-31T00:58:11;13.30;59.60
80282;DHT22;69586;51.890;-8.458;2023-10-31T01:00:37;13.50;59.30
80282;DHT22;69586;51.890;-8.458;2023-10-31T01:03:03;13.50;59.20
80282;DHT22;69586;51.890;-8.458;2023-10-31T01:05:29;13.50;59.10
80282;DHT22;69586;51.890;-8.458;2023-10-31T01:07:55;13.40;59.40
80282;DHT22;69586;51.890;-8.458;2023-10-31T01:10:21;13.30;59.70
80282;DHT22;69586;51.890;-8.458;2023-10-31T01:12:47;13.30;59.80
80282;DHT22;69586;51.890;-8.458;2023-10-31T01:15:12;13.30;58.90
80282;DHT22;69586;51.890;-8.458;2023-10-31T01:17:38;13.30;58.90
80282;DHT22;69586;51.890;-8.458;2023-10-31T01:20:05;13.10;59.10
80282;DHT22;69586;51.890;-8.458;2023-10-31T01:22:31;13.00;59.30
80282;DHT22;69586;51.890;-8.458;2023-10-31T01:24:57;12.90;59.30
80282;DHT22;69586;51.890;-8.458;2023-10-31T01:27:23;12.90;59.40
80282;DHT22;69586;51.890;-8.458;2023-10-31T01:29:49;12.90;59.70
80282;DHT22;69586;51.890;-8.458;2023-10-31T01:32:14;13.00;59.80
80282;DHT22;69586;51.890;-8.458;2023-10-31T01:34:40;13.10;59.90
80282;DHT22;69586;51.890;-8.458;2023-10-31T01:37:06;13.30;59.10
80282;DHT22;69586;51.890;-8.458;2023-10-31T01:39:32;13.50;58.50
80282;DHT22;69586;51.890;-8.458;2023-10-31T01:41:57;13.50;58.10
80282;DHT22;69586;51.890;-8.458;2023-10-31T01:44:23;13.50;58.00
80282;DHT22;69586;51.890;-8.458;2023-10-31T01:46:49;13.40;58.10
80282;DHT22;69586;51.890;-8.458;2023-10-31T01:49:15;13.30;58.20
80282;DHT22;69586;51.890;-8.458;2023-10-31T01:51:42;13.30;58.00
80282;DHT22;69586;51.890;-8.458;2023-10-31T01:54:09;13.20;57.90
80282;DHT22;69586;51.890;-8.458;2023-10-31T01:56:35;13.00;58.40
80282;DHT22;69586;51.890;-8.458;2023-10-31T01:59:02;13.00;58.80
80282;DHT22;69586;51.890;-8.458;2023-10-31T02:01:27;13.00;59.00
80282;DHT22;69586;51.890;-8.458;2023-10-31T02:03:54;13.00;58.90
80282;DHT22;69586;51.890;-8.458;2023-10-31T02:06:20;13.10;58.60
80282;DHT22;69586;51.890;-8.458;2023-10-31T02:08:47;13.10;58.60
80282;DHT22;69586;51.890;-8.458;2023-10-31T02:11:13;13.10;58.50
80282;DHT22;69586;51.890;-8.458;2023-10-31T02:13:39;13.00;58.60
80282;DHT22;69586;51.890;-8.458;2023-10-31T02:16:05;12.90;58.80
80282;DHT22;69586;51.890;-8.458;2023-10-31T02:18:31;13.00;58.70
80282;DHT22;69586;51.890;-8.458;2023-10-31T02:20:58;12.90;58.60
80282;DHT22;69586;51.890;-8.458;2023-10-31T02:23:23;12.90;58.70
80282;DHT22;69586;51.890;-8.458;2023-10-31T02:25:49;12.90;58.60
80282;DHT22;69586;51.890;-8.458;2023-10-31T02:28:15;12.90;58.70
80282;DHT22;69586;51.890;-8.458;2023-10-31T02:30:41;12.90;58.60
80282;DHT22;69586;51.890;-8.458;2023-10-31T02:33:06;12.90;58.60
80282;DHT22;69586;51.890;-8.458;2023-10-31T02:35:32;12.90;58.50
80282;DHT22;69586;51.890;-8.458;2023-10-31T02:37:58;12.90;58.40
80282;DHT22;69586;51.890;-8.458;2023-10-31T02:40:24;13.00;58.30
80282;DHT22;69586;51.890;-8.458;2023-10-31T02:42:50;13.10;58.00
80282;DHT22;69586;51.890;-8.458;2023-10-31T02:45:15;13.10;57.90
80282;DHT22;69586;51.890;-8.458;2023-10-31T02:47:41;13.10;57.60
80282;DHT22;69586;51.890;-8.458;2023-10-31T02:50:07;13.00;57.80
80282;DHT22;69586;51.890;-8.458;2023-10-31T02:52:33;12.90;58.20
80282;DHT22;69586;51.890;-8.458;2023-10-31T02:54:59;12.80;58.20
80282;DHT22;69586;51.890;-8.458;2023-10-31T02:57:25;12.80;58.20
80282;DHT22;69586;51.890;-8.458;2023-10-31T02:59:50;12.80;58.30
80282;DHT22;69586;51.890;-8.458;2023-10-31T03:02:16;12.70;58.30
80282;DHT22;69586;51.890;-8.458;2023-10-31T03:04:42;12.70;58.30
80282;DHT22;69586;51.890;-8.458;2023-10-31T03:07:08;12.60;58.30
80282;DHT22;69586;51.890;-8.458;2023-10-31T03:09:33;12.50;58.40
80282;DHT22;69586;51.890;-8.458;2023-10-31T03:11:59;12.50;58.40
80282;DHT22;69586;51.890;-8.458;2023-10-31T03:14:25;12.50;58.40
80282;DHT22;69586;51.890;-8.458;2023-10-31T03:16:51;12.20;58.70
80282;DHT22;69586;51.890;-8.458;2023-10-31T03:19:17;12.20;58.80
80282;DHT22;69586;51.890;-8.458;2023-10-31T03:21:42;12.20;58.60
80282;DHT22;69586;51.890;-8.458;2023-10-31T03:24:08;12.30;58.60
80282;DHT22;69586;51.890;-8.458;2023-10-31T03:26:34;12.50;58.50
80282;DHT22;69586;51.890;-8.458;2023-10-31T03:29:00;12.50;58.30
80282;DHT22;69586;51.890;-8.458;2023-10-31T03:31:25;12.50;58.20
80282;DHT22;69586;51.890;-8.458;2023-10-31T03:33:51;12.50;58.30
80282;DHT22;69586;51.890;-8.458;2023-10-31T03:36:18;12.50;58.30
80282;DHT22;69586;51.890;-8.458;2023-10-31T03:38:44;12.50;58.30
80282;DHT22;69586;51.890;-8.458;2023-10-31T03:41:10;12.50;58.30
80282;DHT22;69586;51.890;-8.458;2023-10-31T03:43:36;12.50;58.10
80282;DHT22;69586;51.890;-8.458;2023-10-31T03:46:02;12.60;58.00
80282;DHT22;69586;51.890;-8.458;2023-10-31T03:48:28;12.60;57.90
80282;DHT22;69586;51.890;-8.458;2023-10-31T03:50:53;12.50;57.90
80282;DHT22;69586;51.890;-8.458;2023-10-31T03:53:19;12.50;58.00
80282;DHT22;69586;51.890;-8.458;2023-10-31T03:55:45;12.40;58.10
80282;DHT22;69586;51.890;-8.458;2023-10-31T03:58:11;12.30;58.10
80282;DHT22;69586;51.890;-8.458;2023-10-31T04:00:38;12.30;58.20
80282;DHT22;69586;51.890;-8.458;2023-10-31T04:03:04;12.20;58.30
80282;DHT22;69586;51.890;-8.458;2023-10-31T04:05:30;12.10;58.30
80282;DHT22;69586;51.890;-8.458;2023-10-31T04:07:55;12.00;58.50
80282;DHT22;69586;51.890;-8.458;2023-10-31T04:10:21;11.90;58.70
80282;DHT22;69586;51.890;-8.458;2023-10-31T04:12:47;11.90;58.90
80282;DHT22;69586;51.890;-8.458;2023-10-31T04:15:13;11.80;59.00
80282;DHT22;69586;51.890;-8.458;2023-10-31T04:17:39;11.80;59.20
80282;DHT22;69586;51.890;-8.458;2023-10-31T04:20:06;11.90;59.10
80282;DHT22;69586;51.890;-8.458;2023-10-31T04:22:31;11.90;59.10
80282;DHT22;69586;51.890;-8.458;2023-10-31T04:24:57;11.90;59.20
80282;DHT22;69586;51.890;-8.458;2023-10-31T04:27:23;11.80;58.90
80282;DHT22;69586;51.890;-8.458;2023-10-31T04:29:49;11.80;59.10
80282;DHT22;69586;51.890;-8.458;2023-10-31T04:32:14;11.70;59.30
80282;DHT22;69586;51.890;-8.458;2023-10-31T04:34:40;11.70;59.40
80282;DHT22;69586;51.890;-8.458;2023-10-31T04:37:06;11.50;59.50
80282;DHT22;69586;51.890;-8.458;2023-10-31T04:39:32;11.50;60.00
80282;DHT22;69586;51.890;-8.458;2023-10-31T04:41:57;11.70;59.80
80282;DHT22;69586;51.890;-8.458;2023-10-31T04:44:23;11.90;59.60
80282;DHT22;69586;51.890;-8.458;2023-10-31T04:46:49;11.90;59.10
80282;DHT22;69586;51.890;-8.458;2023-10-31T04:49:15;11.70;59.30
80282;DHT22;69586;51.890;-8.458;2023-10-31T04:51:41;11.60;59.70
80282;DHT22;69586;51.890;-8.458;2023-10-31T04:54:07;11.70;59.70
80282;DHT22;69586;51.890;-8.458;2023-10-31T04:56:33;11.80;59.30
80282;DHT22;69586;51.890;-8.458;2023-10-31T04:58:59;11.70;59.20
80282;DHT22;69586;51.890;-8.458;2023-10-31T05:01:25;11.90;59.20
80282;DHT22;69586;51.890;-8.458;2023-10-31T05:03:51;12.00;59.00
80282;DHT22;69586;51.890;-8.458;2023-10-31T05:06:21;12.00;58.80
80282;DHT22;69586;51.890;-8.458;2023-10-31T05:08:47;11.90;58.80
80282;DHT22;69586;51.890;-8.458;2023-10-31T05:11:13;11.90;58.50
80282;DHT22;69586;51.890;-8.458;2023-10-31T05:13:39;11.70;58.50
80282;DHT22;69586;51.890;-8.458;2023-10-31T05:16:05;11.70;58.40
80282;DHT22;69586;51.890;-8.458;2023-10-31T05:18:31;11.50;58.60
80282;DHT22;69586;51.890;-8.458;2023-10-31T05:20:57;11.50;59.20
80282;DHT22;69586;51.890;-8.458;2023-10-31T05:23:23;11.50;59.10
80282;DHT22;69586;51.890;-8.458;2023-10-31T05:25:48;11.50;59.00
80282;DHT22;69586;51.890;-8.458;2023-10-31T05:28:14;11.40;59.10
80282;DHT22;69586;51.890;-8.458;2023-10-31T05:30:40;11.30;59.00
80282;DHT22;69586;51.890;-8.458;2023-10-31T05:33:05;11.30;58.90
80282;DHT22;69586;51.890;-8.458;2023-10-31T05:35:32;11.30;59.20
80282;DHT22;69586;51.890;-8.458;2023-10-31T05:37:58;11.10;59.20
80282;DHT22;69586;51.890;-8.458;2023-10-31T05:40:24;11.10;59.20
80282;DHT22;69586;51.890;-8.458;2023-10-31T05:42:50;11.10;59.20
80282;DHT22;69586;51.890;-8.458;2023-10-31T05:45:16;11.10;59.20
80282;DHT22;69586;51.890;-8.458;2023-10-31T05:47:42;11.10;59.20
80282;DHT22;69586;51.890;-8.458;2023-10-31T05:50:08;11.10;59.10
80282;DHT22;69586;51.890;-8.458;2023-10-31T05:52:34;11.10;59.20
80282;DHT22;69586;51.890;-8.458;2023-10-31T05:55:00;11.20;59.30
80282;DHT22;69586;51.890;-8.458;2023-10-31T05:57:25;11.30;59.30
80282;DHT22;69586;51.890;-8.458;2023-10-31T05:59:51;11.50;59.10
80282;DHT22;69586;51.890;-8.458;2023-10-31T06:02:17;11.50;58.80
80282;DHT22;69586;51.890;-8.458;2023-10-31T06:04:43;11.60;58.80
80282;DHT22;69586;51.890;-8.458;2023-10-31T06:07:10;11.70;58.70
80282;DHT22;69586;51.890;-8.458;2023-10-31T06:09:36;11.70;58.60
80282;DHT22;69586;51.890;-8.458;2023-10-31T06:12:02;11.70;58.50
80282;DHT22;69586;51.890;-8.458;2023-10-31T06:14:28;11.70;58.30
80282;DHT22;69586;51.890;-8.458;2023-10-31T06:16:54;11.70;58.40
80282;DHT22;69586;51.890;-8.458;2023-10-31T06:19:20;11.70;58.40
80282;DHT22;69586;51.890;-8.458;2023-10-31T06:21:46;11.70;58.30
80282;DHT22;69586;51.890;-8.458;2023-10-31T06:24:12;11.70;58.40
80282;DHT22;69586;51.890;-8.458;2023-10-31T06:26:38;11.70;58.30
80282;DHT22;69586;51.890;-8.458;2023-10-31T06:29:05;11.70;58.20
80282;DHT22;69586;51.890;-8.458;2023-10-31T06:31:30;11.70;58.30
80282;DHT22;69586;51.890;-8.458;2023-10-31T06:33:56;11.70;58.30
80282;DHT22;69586;51.890;-8.458;2023-10-31T06:36:22;11.70;58.10
80282;DHT22;69586;51.890;-8.458;2023-10-31T06:38:47;11.70;58.00
80282;DHT22;69586;51.890;-8.458;2023-10-31T06:41:13;11.50;58.10
80282;DHT22;69586;51.890;-8.458;2023-10-31T06:43:39;11.40;58.00
80282;DHT22;69586;51.890;-8.458;2023-10-31T06:46:05;11.30;58.20
80282;DHT22;69586;51.890;-8.458;2023-10-31T06:48:31;11.20;58.50
80282;DHT22;69586;51.890;-8.458;2023-10-31T06:50:57;11.20;58.50
80282;DHT22;69586;51.890;-8.458;2023-10-31T06:53:22;11.30;58.40
80282;DHT22;69586;51.890;-8.458;2023-10-31T06:55:50;11.10;58.40
80282;DHT22;69586;51.890;-8.458;2023-10-31T06:58:16;11.10;58.20
80282;DHT22;69586;51.890;-8.458;2023-10-31T07:00:42;11.00;58.30
80282;DHT22;69586;51.890;-8.458;2023-10-31T07:03:07;10.90;58.80
80282;DHT22;69586;51.890;-8.458;2023-10-31T07:05:37;10.90;59.00
80282;DHT22;69586;51.890;-8.458;2023-10-31T07:08:04;10.90;59.20
80282;DHT22;69586;51.890;-8.458;2023-10-31T07:10:30;10.80;59.30
80282;DHT22;69586;51.890;-8.458;2023-10-31T07:12:56;10.80;59.60
80282;DHT22;69586;51.890;-8.458;2023-10-31T07:15:27;10.90;59.30
80282;DHT22;69586;51.890;-8.458;2023-10-31T07:17:52;11.00;59.00
80282;DHT22;69586;51.890;-8.458;2023-10-31T07:20:18;11.00;59.00
80282;DHT22;69586;51.890;-8.458;2023-10-31T07:22:44;10.90;58.90
80282;DHT22;69586;51.890;-8.458;2023-10-31T07:25:10;10.80;59.10
80282;DHT22;69586;51.890;-8.458;2023-10-31T07:27:36;10.90;58.90
80282;DHT22;69586;51.890;-8.458;2023-10-31T07:30:05;10.90;58.90
80282;DHT22;69586;51.890;-8.458;2023-10-31T07:32:31;10.80;59.00
80282;DHT22;69586;51.890;-8.458;2023-10-31T07:34:58;10.70;59.10
80282;DHT22;69586;51.890;-8.458;2023-10-31T07:37:23;10.80;59.60
80282;DHT22;69586;51.890;-8.458;2023-10-31T07:39:49;10.90;59.20
80282;DHT22;69586;51.890;-8.458;2023-10-31T07:42:16;11.10;59.00
80282;DHT22;69586;51.890;-8.458;2023-10-31T07:44:42;11.10;59.00
80282;DHT22;69586;51.890;-8.458;2023-10-31T07:47:08;11.20;59.00
80282;DHT22;69586;51.890;-8.458;2023-10-31T07:49:33;11.30;58.90
80282;DHT22;69586;51.890;-8.458;2023-10-31T07:51:59;11.30;58.80
80282;DHT22;69586;51.890;-8.458;2023-10-31T07:54:26;11.30;58.80
80282;DHT22;69586;51.890;-8.458;2023-10-31T07:56:52;11.20;59.00
80282;DHT22;69586;51.890;-8.458;2023-10-31T07:59:18;11.20;59.10
80282;DHT22;69586;51.890;-8.458;2023-10-31T08:01:43;11.30;59.40
80282;DHT22;69586;51.890;-8.458;2023-10-31T08:04:09;11.40;59.20
80282;DHT22;69586;51.890;-8.458;2023-10-31T08:06:35;11.40;59.40
80282;DHT22;69586;51.890;-8.458;2023-10-31T08:09:01;11.40;59.70
80282;DHT22;69586;51.890;-8.458;2023-10-31T08:11:27;11.60;60.40
80282;DHT22;69586;51.890;-8.458;2023-10-31T08:13:53;11.90;60.90
80282;DHT22;69586;51.890;-8.458;2023-10-31T08:16:19;12.30;61.40
80282;DHT22;69586;51.890;-8.458;2023-10-31T08:18:45;12.70;61.00
80282;DHT22;69586;51.890;-8.458;2023-10-31T08:21:11;13.10;60.70
80282;DHT22;69586;51.890;-8.458;2023-10-31T08:23:37;13.50;60.40
80282;DHT22;69586;51.890;-8.458;2023-10-31T08:26:03;13.90;59.80
80282;DHT22;69586;51.890;-8.458;2023-10-31T08:28:29;14.20;58.20
80282;DHT22;69586;51.890;-8.458;2023-10-31T08:30:56;14.60;58.00
80282;DHT22;69586;51.890;-8.458;2023-10-31T08:33:22;15.00;57.00
80282;DHT22;69586;51.890;-8.458;2023-10-31T08:35:48;15.40;56.20
80282;DHT22;69586;51.890;-8.458;2023-10-31T08:38:14;15.60;56.30
80282;DHT22;69586;51.890;-8.458;2023-10-31T08:40:40;15.80;56.00
80282;DHT22;69586;51.890;-8.458;2023-10-31T08:43:06;16.00;55.10
80282;DHT22;69586;51.890;-8.458;2023-10-31T08:45:33;16.40;55.50
80282;DHT22;69586;51.890;-8.458;2023-10-31T08:47:59;17.10;55.00
80282;DHT22;69586;51.890;-8.458;2023-10-31T08:50:25;17.80;54.40
80282;DHT22;69586;51.890;-8.458;2023-10-31T08:52:51;18.60;53.00
80282;DHT22;69586;51.890;-8.458;2023-10-31T08:55:17;19.30;52.00
80282;DHT22;69586;51.890;-8.458;2023-10-31T08:57:43;19.90;50.80
80282;DHT22;69586;51.890;-8.458;2023-10-31T09:00:09;20.50;49.30
80282;DHT22;69586;51.890;-8.458;2023-10-31T09:02:35;20.90;49.00
80282;DHT22;69586;51.890;-8.458;2023-10-31T09:05:00;21.10;48.40
80282;DHT22;69586;51.890;-8.458;2023-10-31T09:07:26;21.30;46.60
80282;DHT22;69586;51.890;-8.458;2023-10-31T09:09:52;21.30;46.20
80282;DHT22;69586;51.890;-8.458;2023-10-31T09:12:18;21.30;45.60
80282;DHT22;69586;51.890;-8.458;2023-10-31T09:14:44;21.40;45.10
80282;DHT22;69586;51.890;-8.458;2023-10-31T09:17:10;21.50;44.80
80282;DHT22;69586;51.890;-8.458;2023-10-31T09:19:35;21.40;44.70
80282;DHT22;69586;51.890;-8.458;2023-10-31T09:22:01;21.30;44.60
80282;DHT22;69586;51.890;-8.458;2023-10-31T09:24:27;21.00;44.70
80282;DHT22;69586;51.890;-8.458;2023-10-31T09:26:52;20.70;45.10
80282;DHT22;69586;51.890;-8.458;2023-10-31T09:29:18;20.30;45.30
80282;DHT22;69586;51.890;-8.458;2023-10-31T09:31:44;19.70;46.30
80282;DHT22;69586;51.890;-8.458;2023-10-31T09:34:10;19.40;47.60
80282;DHT22;69586;51.890;-8.458;2023-10-31T09:36:35;19.20;47.60
80282;DHT22;69586;51.890;-8.458;2023-10-31T09:39:01;19.10;47.90
80282;DHT22;69586;51.890;-8.458;2023-10-31T09:41:28;19.10;48.20
80282;DHT22;69586;51.890;-8.458;2023-10-31T09:43:54;19.30;48.00
80282;DHT22;69586;51.890;-8.458;2023-10-31T09:46:21;19.50;47.90
80282;DHT22;69586;51.890;-8.458;2023-10-31T09:48:50;20.00;47.80
80282;DHT22;69586;51.890;-8.458;2023-10-31T09:51:17;20.30;47.20
80282;DHT22;69586;51.890;-8.458;2023-10-31T09:53:44;20.40;47.20
80282;DHT22;69586;51.890;-8.458;2023-10-31T09:56:11;20.30;47.50
80282;DHT22;69586;51.890;-8.458;2023-10-31T09:58:37;20.10;47.80
80282;DHT22;69586;51.890;-8.458;2023-10-31T10:01:05;19.90;48.00
80282;DHT22;69586;51.890;-8.458;2023-10-31T10:03:30;19.90;48.00
80282;DHT22;69586;51.890;-8.458;2023-10-31T10:05:57;19.90;48.10
80282;DHT22;69586;51.890;-8.458;2023-10-31T10:08:23;19.80;48.40
80282;DHT22;69586;51.890;-8.458;2023-10-31T10:10:50;19.70;48.60
80282;DHT22;69586;51.890;-8.458;2023-10-31T10:13:20;19.50;48.70
80282;DHT22;69586;51.890;-8.458;2023-10-31T10:15:51;19.30;48.90
80282;DHT22;69586;51.890;-8.458;2023-10-31T10:18:27;19.20;49.20
80282;DHT22;69586;51.890;-8.458;2023-10-31T10:20:57;19.60;49.00
80282;DHT22;69586;51.890;-8.458;2023-10-31T10:23:26;20.50;48.00
80282;DHT22;69586;51.890;-8.458;2023-10-31T10:25:53;21.30;46.70
80282;DHT22;69586;51.890;-8.458;2023-10-31T10:28:19;21.40;46.10
80282;DHT22;69586;51.890;-8.458;2023-10-31T10:30:46;21.00;46.50
80282;DHT22;69586;51.890;-8.458;2023-10-31T10:33:13;20.50;47.30
80282;DHT22;69586;51.890;-8.458;2023-10-31T10:35:39;20.00;48.40
80282;DHT22;69586;51.890;-8.458;2023-10-31T10:38:11;19.50;48.90
80282;DHT22;69586;51.890;-8.458;2023-10-31T10:40:41;19.20;49.70
80282;DHT22;69586;51.890;-8.458;2023-10-31T10:43:22;18.80;50.30
80282;DHT22;69586;51.890;-8.458;2023-10-31T10:45:54;18.60;51.00
80282;DHT22;69586;51.890;-8.458;2023-10-31T10:48:27;18.40;51.80
80282;DHT22;69586;51.890;-8.458;2023-10-31T10:51:14;18.50;52.00
80282;DHT22;69586;51.890;-8.458;2023-10-31T10:53:49;18.60;52.10
80282;DHT22;69586;51.890;-8.458;2023-10-31T10:56:52;18.70;51.70
80282;DHT22;69586;51.890;-8.458;2023-10-31T10:59:22;18.70;51.60
80282;DHT22;69586;51.890;-8.458;2023-10-31T11:01:52;18.60;51.90
80282;DHT22;69586;51.890;-8.458;2023-10-31T11:04:18;18.40;52.20
80282;DHT22;69586;51.890;-8.458;2023-10-31T11:06:45;18.20;52.70
80282;DHT22;69586;51.890;-8.458;2023-10-31T11:09:11;18.00;52.90
80282;DHT22;69586;51.890;-8.458;2023-10-31T11:11:39;17.80;53.40
80282;DHT22;69586;51.890;-8.458;2023-10-31T11:14:06;17.60;53.80
80282;DHT22;69586;51.890;-8.458;2023-10-31T11:16:44;17.50;54.10
80282;DHT22;69586;51.890;-8.458;2023-10-31T11:19:11;17.30;54.50
80282;DHT22;69586;51.890;-8.458;2023-10-31T11:24:23;17.00;55.50
80282;DHT22;69586;51.890;-8.458;2023-10-31T11:26:53;16.90;55.90
80282;DHT22;69586;51.890;-8.458;2023-10-31T11:29:23;16.80;56.30
80282;DHT22;69586;51.890;-8.458;2023-10-31T11:31:49;16.80;56.70
80282;DHT22;69586;51.890;-8.458;2023-10-31T11:34:19;16.70;56.90
80282;DHT22;69586;51.890;-8.458;2023-10-31T11:36:46;16.70;57.30
80282;DHT22;69586;51.890;-8.458;2023-10-31T11:39:17;16.70;57.40
80282;DHT22;69586;51.890;-8.458;2023-10-31T11:41:50;16.70;57.50
80282;DHT22;69586;51.890;-8.458;2023-10-31T11:44:16;16.70;57.50
80282;DHT22;69586;51.890;-8.458;2023-10-31T11:46:42;16.60;58.00
80282;DHT22;69586;51.890;-8.458;2023-10-31T11:49:08;16.50;58.10
80282;DHT22;69586;51.890;-8.458;2023-10-31T11:51:34;16.50;58.40
80282;DHT22;69586;51.890;-8.458;2023-10-31T11:54:02;16.40;58.60
80282;DHT22;69586;51.890;-8.458;2023-10-31T11:56:28;16.40;58.90
80282;DHT22;69586;51.890;-8.458;2023-10-31T11:59:02;16.40;59.00
80282;DHT22;69586;51.890;-8.458;2023-10-31T12:01:28;16.40;59.00
80282;DHT22;69586;51.890;-8.458;2023-10-31T12:03:54;16.40;59.20
80282;DHT22;69586;51.890;-8.458;2023-10-31T12:06:20;16.40;59.40
80282;DHT22;69586;51.890;-8.458;2023-10-31T12:08:48;16.30;59.70
80282;DHT22;69586;51.890;-8.458;2023-10-31T12:11:21;16.20;60.10
80282;DHT22;69586;51.890;-8.458;2023-10-31T12:13:58;16.20;60.30
80282;DHT22;69586;51.890;-8.458;2023-10-31T12:16:34;16.20;60.50
80282;DHT22;69586;51.890;-8.458;2023-10-31T12:19:05;16.20;60.50
80282;DHT22;69586;51.890;-8.458;2023-10-31T12:21:38;16.20;60.70
80282;DHT22;69586;51.890;-8.458;2023-10-31T12:24:11;16.20;60.70
80282;DHT22;69586;51.890;-8.458;2023-10-31T12:26:37;16.20;60.90
80282;DHT22;69586;51.890;-8.458;2023-10-31T12:29:14;16.20;61.20
80282;DHT22;69586;51.890;-8.458;2023-10-31T12:34:14;16.10;61.70
80282;DHT22;69586;51.890;-8.458;2023-10-31T12:36:40;16.10;61.90
80282;DHT22;69586;51.890;-8.458;2023-10-31T12:39:08;16.10;62.00
80282;DHT22;69586;51.890;-8.458;2023-10-31T12:41:36;16.10;62.10
80282;DHT22;69586;51.890;-8.458;2023-10-31T12:44:02;16.00;62.30
80282;DHT22;69586;51.890;-8.458;2023-10-31T12:46:31;16.00;62.60
80282;DHT22;69586;51.890;-8.458;2023-10-31T12:48:57;16.10;62.60
80282;DHT22;69586;51.890;-8.458;2023-10-31T12:51:24;16.10;62.70
80282;DHT22;69586;51.890;-8.458;2023-10-31T12:53:51;16.10;62.90
80282;DHT22;69586;51.890;-8.458;2023-10-31T12:56:36;16.10;63.00
80282;DHT22;69586;51.890;-8.458;2023-10-31T12:59:10;16.20;63.00
80282;DHT22;69586;51.890;-8.458;2023-10-31T13:01:47;16.20;63.20
80282;DHT22;69586;51.890;-8.458;2023-10-31T13:04:27;16.20;63.20
80282;DHT22;69586;51.890;-8.458;2023-10-31T13:06:57;16.30;63.20
80282;DHT22;69586;51.890;-8.458;2023-10-31T13:09:23;16.20;63.40
80282;DHT22;69586;51.890;-8.458;2023-10-31T13:11:49;16.20;63.70
80282;DHT22;69586;51.890;-8.458;2023-10-31T13:14:14;16.20;64.00
80282;DHT22;69586;51.890;-8.458;2023-10-31T13:16:40;16.20;64.00
80282;DHT22;69586;51.890;-8.458;2023-10-31T13:19:06;16.30;64.40
80282;DHT22;69586;51.890;-8.458;2023-10-31T13:21:32;16.40;64.50
80282;DHT22;69586;51.890;-8.458;2023-10-31T13:23:57;16.40;64.90
80282;DHT22;69586;51.890;-8.458;2023-10-31T13:26:24;16.40;64.50
80282;DHT22;69586;51.890;-8.458;2023-10-31T13:28:49;16.50;64.20
80282;DHT22;69586;51.890;-8.458;2023-10-31T13:31:15;16.60;63.80
80282;DHT22;69586;51.890;-8.458;2023-10-31T13:33:42;16.70;63.40
80282;DHT22;69586;51.890;-8.458;2023-10-31T13:36:08;16.80;63.20
80282;DHT22;69586;51.890;-8.458;2023-10-31T13:38:36;16.80;63.20
80282;DHT22;69586;51.890;-8.458;2023-10-31T13:41:04;16.90;63.40
80282;DHT22;69586;51.890;-8.458;2023-10-31T13:43:29;17.00;63.40
80282;DHT22;69586;51.890;-8.458;2023-10-31T13:45:55;17.00;62.50
80282;DHT22;69586;51.890;-8.458;2023-10-31T13:48:21;17.00;62.30
80282;DHT22;69586;51.890;-8.458;2023-10-31T13:50:46;17.10;62.30
80282;DHT22;69586;51.890;-8.458;2023-10-31T13:53:12;17.20;62.50
80282;DHT22;69586;51.890;-8.458;2023-10-31T13:55:38;17.20;62.60
80282;DHT22;69586;51.890;-8.458;2023-10-31T13:58:04;17.30;61.80
80282;DHT22;69586;51.890;-8.458;2023-10-31T14:00:29;17.30;62.00
80282;DHT22;69586;51.890;-8.458;2023-10-31T14:02:55;17.40;61.60
80282;DHT22;69586;51.890;-8.458;2023-10-31T14:05:21;17.50;61.50
80282;DHT22;69586;51.890;-8.458;2023-10-31T14:07:47;17.50;61.00
80282;DHT22;69586;51.890;-8.458;2023-10-31T14:10:12;17.50;60.80
80282;DHT22;69586;51.890;-8.458;2023-10-31T14:12:38;17.50;61.00
80282;DHT22;69586;51.890;-8.458;2023-10-31T14:15:04;17.50;61.30
80282;DHT22;69586;51.890;-8.458;2023-10-31T14:17:30;17.50;61.30
80282;DHT22;69586;51.890;-8.458;2023-10-31T14:19:56;17.50;61.10
80282;DHT22;69586;51.890;-8.458;2023-10-31T14:22:21;17.60;60.90
80282;DHT22;69586;51.890;-8.458;2023-10-31T14:24:47;17.60;61.00
80282;DHT22;69586;51.890;-8.458;2023-10-31T14:27:13;17.50;61.10
80282;DHT22;69586;51.890;-8.458;2023-10-31T14:29:39;17.50;61.40
80282;DHT22;69586;51.890;-8.458;2023-10-31T14:32:08;17.50;61.70
80282;DHT22;69586;51.890;-8.458;2023-10-31T14:34:35;17.50;62.00
80282;DHT22;69586;51.890;-8.458;2023-10-31T14:37:00;17.50;61.90
80282;DHT22;69586;51.890;-8.458;2023-10-31T14:39:26;17.40;62.20
80282;DHT22;69586;51.890;-8.458;2023-10-31T14:41:52;17.40;62.50
80282;DHT22;69586;51.890;-8.458;2023-10-31T14:44:17;17.40;62.60
80282;DHT22;69586;51.890;-8.458;2023-10-31T14:46:44;17.40;62.80
80282;DHT22;69586;51.890;-8.458;2023-10-31T14:49:12;17.40;62.60
80282;DHT22;69586;51.890;-8.458;2023-10-31T14:51:39;17.20;62.70
80282;DHT22;69586;51.890;-8.458;2023-10-31T14:54:07;17.20;63.00
80282;DHT22;69586;51.890;-8.458;2023-10-31T14:56:33;17.20;63.30
80282;DHT22;69586;51.890;-8.458;2023-10-31T14:59:00;17.20;63.40
80282;DHT22;69586;51.890;-8.458;2023-10-31T15:01:28;17.20;63.90
80282;DHT22;69586;51.890;-8.458;2023-10-31T15:03:54;17.20;63.70
80282;DHT22;69586;51.890;-8.458;2023-10-31T15:06:21;17.20;63.60
80282;DHT22;69586;51.890;-8.458;2023-10-31T15:08:47;17.10;63.90
80282;DHT22;69586;51.890;-8.458;2023-10-31T15:11:13;17.10;64.00
80282;DHT22;69586;51.890;-8.458;2023-10-31T15:13:41;17.10;64.10
80282;DHT22;69586;51.890;-8.458;2023-10-31T15:16:07;17.00;64.30
80282;DHT22;69586;51.890;-8.458;2023-10-31T15:18:33;17.00;64.40